createdAt,value
2023-01-07T00:00:08.770Z,10.27
2023-01-07T00:05:15.130Z,11.20
2023-01-07T00:10:21.333Z,11.00
2023-01-07T00:15:24.328Z,10.20
2023-01-07T00:20:27.212Z,9.10
2023-01-07T00:25:31.439Z,8.70
2023-01-07T00:30:34.200Z,8.60
2023-01-07T00:35:37.814Z,9.57
2023-01-07T00:40:42.121Z,10.57
2023-01-07T00:45:45.313Z,11.27
2023-01-07T00:50:49.656Z,9.23
2023-01-07T00:55:53.995Z,10.43
2023-01-07T01:00:57.500Z,12.33
2023-01-07T01:06:02.929Z,11.03
2023-01-07T01:11:08.668Z,12.57
2023-01-07T01:16:16.069Z,9.77
2023-01-07T01:21:19.243Z,9.37
2023-01-07T01:26:23.450Z,10.13
2023-01-07T01:31:26.737Z,11.20
2023-01-07T01:36:30.249Z,11.40
2023-01-07T01:41:37.066Z,11.03
2023-01-07T01:46:42.906Z,8.33
2023-01-07T01:51:49.228Z,9.07
2023-01-07T01:56:54.754Z,7.37
2023-01-07T02:01:58.308Z,7.17
2023-01-07T02:07:06.734Z,9.57
2023-01-07T02:12:19.764Z,8.53
2023-01-07T02:17:30.038Z,6.87
2023-01-07T02:22:50.030Z,10.07
2023-01-07T02:28:30.717Z,6.83
2023-01-07T02:33:49.235Z,5.60
2023-01-07T02:39:13.589Z,6.60
2023-01-07T02:44:24.884Z,6.33
2023-01-07T02:49:30.630Z,6.83
2023-01-07T02:54:34.353Z,7.70
2023-01-07T02:59:47.741Z,7.10
2023-01-07T03:05:08.748Z,5.73
2023-01-07T03:10:16.254Z,12.03
2023-01-07T03:15:21.275Z,8.13
2023-01-07T03:20:26.005Z,8.17
2023-01-07T03:25:31.015Z,9.63
2023-01-07T03:30:34.659Z,10.10
2023-01-07T03:35:41.344Z,9.93
2023-01-07T03:40:45.020Z,9.17
2023-01-07T03:45:48.600Z,16.30
2023-01-07T03:50:53.910Z,9.93
2023-01-07T03:55:56.865Z,13.90
2023-01-07T04:01:00.180Z,12.53
2023-01-07T04:06:05.386Z,10.80
2023-01-07T04:11:09.793Z,8.30
2023-01-07T04:16:13.630Z,9.10
2023-01-07T04:21:18.564Z,11.70
2023-01-07T04:26:21.549Z,9.57
2023-01-07T04:31:24.809Z,8.13
2023-01-07T04:36:29.219Z,13.60
2023-01-07T04:41:32.953Z,7.77
2023-01-07T04:46:37.998Z,8.13
2023-01-07T04:51:42.503Z,8.03
2023-01-07T04:56:45.703Z,9.43
2023-01-07T05:01:49.156Z,10.03
2023-01-07T05:06:53.653Z,8.03
2023-01-07T05:11:58.349Z,7.27
2023-01-07T05:17:02.073Z,9.27
2023-01-07T05:22:08.193Z,8.27
2023-01-07T05:27:15.010Z,8.43
2023-01-07T05:32:18.097Z,8.37
2023-01-07T05:37:23.105Z,8.27
2023-01-07T05:42:26.765Z,13.47
2023-01-07T05:47:30.115Z,9.77
2023-01-07T05:52:34.399Z,12.10
2023-01-07T05:57:37.277Z,13.77
2023-01-07T06:02:40.168Z,11.40
2023-01-07T06:07:44.394Z,10.37
2023-01-07T06:12:47.204Z,15.17
2023-01-07T06:17:50.017Z,10.67
2023-01-07T06:22:54.350Z,13.43
2023-01-07T06:27:58.394Z,12.63
2023-01-07T06:33:01.948Z,12.80
2023-01-07T06:38:06.273Z,11.23
2023-01-07T06:43:09.381Z,8.93
2023-01-07T06:48:12.161Z,11.67
2023-01-07T06:53:16.347Z,10.30
2023-01-07T06:58:19.905Z,9.80
2023-01-07T07:03:22.694Z,8.60
2023-01-07T07:08:27.068Z,11.53
2023-01-07T07:13:29.893Z,8.50
2023-01-07T07:18:32.739Z,12.50
2023-01-07T07:23:37.024Z,8.53
2023-01-07T07:28:42.658Z,9.50
2023-01-07T07:33:45.695Z,8.13
2023-01-07T07:38:49.956Z,8.33
2023-01-07T07:43:55.390Z,5.17
2023-01-07T07:48:58.329Z,8.93
2023-01-07T07:54:02.521Z,9.43
2023-01-07T07:59:05.330Z,8.60
2023-01-07T08:04:10.869Z,10.63
2023-01-07T08:09:15.218Z,8.23
2023-01-07T08:14:20.914Z,3.27
2023-01-07T08:19:23.791Z,3.57
2023-01-07T08:24:28.028Z,3.60
2023-01-07T08:29:31.025Z,6.30
2023-01-07T08:34:34.078Z,3.27
2023-01-07T08:39:38.502Z,3.63
2023-01-07T08:44:47.137Z,2.53
2023-01-07T08:49:50.026Z,2.97
2023-01-07T08:54:54.373Z,2.10
2023-01-07T08:59:57.505Z,3.87
2023-01-07T09:05:03.219Z,2.20
2023-01-07T09:10:09.046Z,1.33
2023-01-07T09:15:15.285Z,2.30
2023-01-07T09:20:18.527Z,1.67
2023-01-07T09:25:35.858Z,1.87
2023-01-07T09:30:38.740Z,2.20
2023-01-07T09:35:41.644Z,4.63
2023-01-07T09:40:54.096Z,3.00
2023-01-07T09:51:30.355Z,2.97
2023-01-07T09:56:36.372Z,3.27
2023-01-07T10:01:43.969Z,0.70
2023-01-07T10:06:53.513Z,1.60
2023-01-07T10:12:04.205Z,2.17
2023-01-07T10:17:13.746Z,3.53
2023-01-07T10:22:21.515Z,1.50
2023-01-07T10:27:31.623Z,1.77
2023-01-07T10:32:36.694Z,1.57
2023-01-07T10:37:40.901Z,1.50
2023-01-07T10:42:54.394Z,1.33
2023-01-07T10:48:11.910Z,1.33
2023-01-07T10:58:52.073Z,2.90
2023-01-07T11:03:56.776Z,1.17
2023-01-07T11:08:59.654Z,2.53
2023-01-07T11:14:07.476Z,2.37
2023-01-07T11:19:12.910Z,2.97
2023-01-07T11:24:38.802Z,0.77
2023-01-07T11:29:45.309Z,0.60
2023-01-07T11:34:53.229Z,2.87
2023-01-07T11:40:00.850Z,3.33
2023-01-07T11:45:16.226Z,0.93
2023-01-07T11:50:26.979Z,0.77
2023-01-07T11:55:31.077Z,1.03
2023-01-07T12:00:38.084Z,1.17
2023-01-07T12:05:41.939Z,0.90
2023-01-07T12:10:44.796Z,1.57
2023-01-07T12:15:53.528Z,2.07
2023-01-07T12:21:25.081Z,1.23
2023-01-07T12:26:31.501Z,1.10
2023-01-07T12:31:44.716Z,1.50
2023-01-07T12:36:53.360Z,0.87
2023-01-07T12:42:02.563Z,1.73
2023-01-07T12:47:32.431Z,2.00
2023-01-07T12:52:42.399Z,1.47
2023-01-07T12:57:46.900Z,0.73
2023-01-07T13:02:55.631Z,0.60
2023-01-07T13:08:04.489Z,2.10
2023-01-07T13:13:14.157Z,2.93
2023-01-07T13:18:20.991Z,1.70
2023-01-07T13:23:28.555Z,0.83
2023-01-07T13:29:03.959Z,1.73
2023-01-07T13:34:22.931Z,5.90
2023-01-07T13:39:34.276Z,0.77
2023-01-07T13:44:59.300Z,1.00
2023-01-07T13:50:07.242Z,2.53
2023-01-07T13:55:38.623Z,3.50
2023-01-07T14:00:45.045Z,1.37
2023-01-07T14:05:51.064Z,2.33
2023-01-07T14:10:54.491Z,1.00
2023-01-07T14:16:05.559Z,5.57
2023-01-07T14:21:18.971Z,1.93
2023-01-07T14:26:28.166Z,1.07
2023-01-07T14:31:34.610Z,1.63
2023-01-07T14:37:16.325Z,1.47
2023-01-07T14:42:43.964Z,1.17
2023-01-07T14:47:59.724Z,1.43
2023-01-07T14:53:49.889Z,1.13
2023-01-07T14:59:06.571Z,1.50
2023-01-07T15:04:36.068Z,1.23
2023-01-07T15:10:01.839Z,2.60
2023-01-07T15:15:25.224Z,7.37
2023-01-07T15:20:43.931Z,1.30
2023-01-07T15:25:56.523Z,1.90
2023-01-07T15:31:05.988Z,5.83
2023-01-07T15:36:11.090Z,2.20
2023-01-07T15:41:31.091Z,1.77
2023-01-07T15:46:34.934Z,1.73
2023-01-07T15:51:41.674Z,2.70
2023-01-07T15:56:45.895Z,1.93
2023-01-07T16:01:50.711Z,2.77
2023-01-07T16:06:56.866Z,2.53
2023-01-07T16:12:01.323Z,2.10
2023-01-07T16:17:21.806Z,2.63
2023-01-07T16:22:26.202Z,2.20
2023-01-07T16:27:31.602Z,2.70
2023-01-07T16:32:34.575Z,2.43
2023-01-07T16:37:40.322Z,2.23
2023-01-07T16:42:47.943Z,1.97
2023-01-07T16:48:01.954Z,2.20
2023-01-07T16:53:05.165Z,2.53
2023-01-07T16:58:17.303Z,3.07
2023-01-07T17:03:20.279Z,4.47
2023-01-07T17:08:23.149Z,1.90
2023-01-07T17:13:39.204Z,1.77
2023-01-07T17:18:42.183Z,2.83
2023-01-07T17:23:45.772Z,1.87
2023-01-07T17:28:51.861Z,4.20
2023-01-07T17:33:56.008Z,4.07
2023-01-07T17:38:58.935Z,2.60
2023-01-07T17:44:03.467Z,6.73
2023-01-07T17:49:07.569Z,5.03
2023-01-07T17:54:18.854Z,2.03
2023-01-07T17:59:24.289Z,4.33
2023-01-07T18:04:27.087Z,5.00
2023-01-07T18:09:29.977Z,4.83
2023-01-07T18:14:34.122Z,3.53
2023-01-07T18:19:36.948Z,2.90
2023-01-07T18:24:39.808Z,2.83
2023-01-07T18:29:44.175Z,2.33
2023-01-07T18:34:46.972Z,4.93
2023-01-07T18:39:49.807Z,2.40
2023-01-07T18:44:54.051Z,4.50
2023-01-07T18:49:57.093Z,2.77
2023-01-07T18:55:00.086Z,2.83
2023-01-07T19:00:06.965Z,3.83
2023-01-07T19:05:17.886Z,3.13
2023-01-07T19:10:39.091Z,3.97
2023-01-07T19:15:47.881Z,2.90
2023-01-07T19:20:53.003Z,3.07
2023-01-07T19:26:00.061Z,3.07
2023-01-07T19:31:07.403Z,3.17
2023-01-07T19:36:20.216Z,3.47
2023-01-07T19:41:29.361Z,3.10
2023-01-07T19:46:39.312Z,4.00
2023-01-07T19:51:44.245Z,6.17
2023-01-07T19:56:50.173Z,6.43
2023-01-07T20:01:54.971Z,5.07
2023-01-07T20:06:58.148Z,4.03
2023-01-07T20:12:01.188Z,6.77
2023-01-07T20:17:05.611Z,4.43
2023-01-07T20:22:10.726Z,3.67
2023-01-07T20:27:13.734Z,6.27
2023-01-07T20:32:19.848Z,5.33
2023-01-07T20:37:25.099Z,3.23
2023-01-07T20:42:32.654Z,4.10
2023-01-07T20:47:43.399Z,3.80
2023-01-07T20:52:54.202Z,3.00
2023-01-07T20:58:01.933Z,5.53
2023-01-07T21:08:49.513Z,5.63
2023-01-07T21:14:00.709Z,7.90
2023-01-07T21:19:13.861Z,9.90
2023-01-07T21:24:22.991Z,6.87
2023-01-07T21:29:39.593Z,4.47
2023-01-07T21:34:52.353Z,3.83
2023-01-07T21:40:01.713Z,7.60
2023-01-07T21:45:13.920Z,4.50
2023-01-07T21:55:50.221Z,3.03
2023-01-07T22:00:55.949Z,2.93
2023-01-07T22:06:29.651Z,4.27
2023-01-07T22:11:39.327Z,3.30
2023-01-07T22:16:49.142Z,5.17
2023-01-07T22:21:54.007Z,9.83
2023-01-07T22:26:57.509Z,2.57
2023-01-07T22:32:01.001Z,4.30
2023-01-07T22:37:08.948Z,7.27
2023-01-07T22:42:13.702Z,5.67
2023-01-07T22:47:18.902Z,5.77
2023-01-07T22:52:23.575Z,10.60
2023-01-07T22:57:27.249Z,5.27
2023-01-07T23:02:30.414Z,3.27
2023-01-07T23:07:35.068Z,2.43
2023-01-07T23:12:38.485Z,4.70
2023-01-07T23:17:42.528Z,5.10
2023-01-07T23:22:47.514Z,5.47
2023-01-07T23:27:51.011Z,3.13
2023-01-07T23:32:54.296Z,3.97
2023-01-07T23:38:00.566Z,4.93
2023-01-07T23:43:04.550Z,2.97
2023-01-07T23:48:08.047Z,2.97
2023-01-07T23:53:12.587Z,7.07
2023-01-07T23:58:16.396Z,2.23
